Hauptseite
METAR-TAF:

METAR-TAF

Flughäfen :

Flugplatz Oberpfaffenhofen

Oberpfaffenhofen, Deutschland

Breite: 48-05N, Länge: 011-17E, Höhe: 600 m

Beobachtung

Neuester Wetterbericht von vor 15 Minuten, um 20:20 UTC
Wind 1 kt aus Süd/Südost
Temperatur 4°C
Luftfeuchtigkeit 70%
Luftdruck 1019 hPa
Sichtweite 10 km oder mehr

METAR: EDMO 032020Z AUTO 16001KT 9999 // FEW065/// BKN081/// 04/M01 Q1019

Zeit: 22:35 (20:35 UTC)

Prognose

Neuester Wetterbericht von vor 6 Stunden und 35 Minuten, um 14:00 UTC
Gültige Prognose vom 03 um 15 UTC bis 03 um 24 UTC
Wind 8 kt aus West
Sichtweite 10 km oder mehr
Leicht bewölkt in der Höhe von 3000 ft
Übergehend zu
vom 03 um 16 UTC bis 03 um 18 UTC
Wind 3 kt aus unterschiedlichen Richtungen

TAF: EDMO 031400Z 0315/0324 27008KT 9999 FEW030 BECMG 0316/0318 VRB03KT

Wetterbeobachtungen und Prognosen von mehr als 4000 Flughäfen (METAR und TAF Bericht).

Die verfügbaren Stationen werden durch gelbe und rote Markierungen auf der Karte dargestellt.

Führen Sie die Maus auf sie, um den Namen der Station zu sehen.

Darauf klicken, um die Beobachtung von Wetterbeobachtungen und Prognosen zu sehen.

Um die Karte zu ändern : klicken Sie auf den grünen Tasten mit einem schwarzen Kreuz Zum Vergrößern, auf den grünen Button mit einem Gedankenstrich zu verkleinern, oder auf die grünen Pfeile für benachbarte Karten.


METAR-TAF: